Terminal Aerodrome Forecast
Issued by NWS Green Bay, WI

Home | Current Version | Previous Version | Text Only | Print | Product List | Glossary Off
Versions: 1 2 3 4 5 6 7 8 9 10 11 12 13 14 15 16 17 18 19 20 21 22 23 24 25 26 27 28 29 30 31 32 33 34 35

918
FTUS43 KGRB 210233 AAB
TAFGRB
TAF AMD
KGRB 210233Z 2103/2124 16014G24KT 6SM -RA OVC050 WS012/17050KT
     FM210400 17014G22KT 3SM -RA BR OVC040 WS017/18055KT
     FM210800 22009KT 3SM BR BKN008
     FM211200 25007KT 3SM BR BKN005
     FM211500 27007KT P6SM SCT008 BKN250
     FM211700 26008KT P6SM FEW250=

USA.gov is the U.S. government's official web portal to all federal, state and local government web resources and services.